sensor_id;sensor_type;location;lat;lon;timestamp;P1;durP1;ratioP1;P2;durP2;ratioP2
82230;SDS011;71832;45.138;9.816;2024-02-16T00:01:54;72.85;;;40.95;;
82230;SDS011;71832;45.138;9.816;2024-02-16T00:04:23;76.68;;;41.80;;
82230;SDS011;71832;45.138;9.816;2024-02-16T00:06:52;80.88;;;44.25;;
82230;SDS011;71832;45.138;9.816;2024-02-16T00:09:21;78.38;;;41.55;;
82230;SDS011;71832;45.138;9.816;2024-02-16T00:11:48;75.10;;;40.75;;
82230;SDS011;71832;45.138;9.816;2024-02-16T00:14:18;77.97;;;42.88;;
82230;SDS011;71832;45.138;9.816;2024-02-16T00:16:47;78.63;;;40.65;;
82230;SDS011;71832;45.138;9.816;2024-02-16T00:19:15;71.68;;;40.30;;
82230;SDS011;71832;45.138;9.816;2024-02-16T00:21:42;72.25;;;39.13;;
82230;SDS011;71832;45.138;9.816;2024-02-16T00:24:10;85.45;;;43.42;;
82230;SDS011;71832;45.138;9.816;2024-02-16T00:26:38;78.75;;;42.60;;
82230;SDS011;71832;45.138;9.816;2024-02-16T00:29:06;89.80;;;44.22;;
82230;SDS011;71832;45.138;9.816;2024-02-16T00:31:34;83.93;;;45.25;;
82230;SDS011;71832;45.138;9.816;2024-02-16T00:34:01;81.72;;;41.97;;
82230;SDS011;71832;45.138;9.816;2024-02-16T00:36:30;76.55;;;41.45;;
82230;SDS011;71832;45.138;9.816;2024-02-16T00:39:00;72.93;;;38.13;;
82230;SDS011;71832;45.138;9.816;2024-02-16T00:41:29;70.82;;;38.78;;
82230;SDS011;71832;45.138;9.816;2024-02-16T00:43:57;66.75;;;38.10;;
82230;SDS011;71832;45.138;9.816;2024-02-16T00:46:26;77.55;;;40.28;;
82230;SDS011;71832;45.138;9.816;2024-02-16T00:48:54;81.13;;;41.38;;
82230;SDS011;71832;45.138;9.816;2024-02-16T00:51:22;78.68;;;42.55;;
82230;SDS011;71832;45.138;9.816;2024-02-16T00:53:51;76.43;;;40.25;;
82230;SDS011;71832;45.138;9.816;2024-02-16T00:56:20;80.80;;;41.60;;
82230;SDS011;71832;45.138;9.816;2024-02-16T00:58:47;88.43;;;44.95;;
82230;SDS011;71832;45.138;9.816;2024-02-16T01:01:16;88.00;;;46.13;;
82230;SDS011;71832;45.138;9.816;2024-02-16T01:03:43;76.30;;;40.70;;
82230;SDS011;71832;45.138;9.816;2024-02-16T01:06:12;72.22;;;39.03;;
82230;SDS011;71832;45.138;9.816;2024-02-16T01:08:40;74.07;;;39.15;;
82230;SDS011;71832;45.138;9.816;2024-02-16T01:11:08;73.30;;;38.25;;
82230;SDS011;71832;45.138;9.816;2024-02-16T01:13:37;63.20;;;36.67;;
82230;SDS011;71832;45.138;9.816;2024-02-16T01:16:06;66.55;;;36.30;;
82230;SDS011;71832;45.138;9.816;2024-02-16T01:18:35;63.13;;;34.35;;
82230;SDS011;71832;45.138;9.816;2024-02-16T01:21:03;68.65;;;34.70;;
82230;SDS011;71832;45.138;9.816;2024-02-16T01:23:31;57.08;;;33.30;;
82230;SDS011;71832;45.138;9.816;2024-02-16T01:26:00;56.60;;;32.55;;
82230;SDS011;71832;45.138;9.816;2024-02-16T01:28:29;57.13;;;32.70;;
82230;SDS011;71832;45.138;9.816;2024-02-16T01:30:57;61.85;;;33.42;;
82230;SDS011;71832;45.138;9.816;2024-02-16T01:33:26;59.63;;;33.40;;
82230;SDS011;71832;45.138;9.816;2024-02-16T01:35:54;53.30;;;31.63;;
82230;SDS011;71832;45.138;9.816;2024-02-16T01:38:22;54.55;;;31.75;;
82230;SDS011;71832;45.138;9.816;2024-02-16T01:40:50;54.63;;;30.80;;
82230;SDS011;71832;45.138;9.816;2024-02-16T01:43:19;55.95;;;30.80;;
82230;SDS011;71832;45.138;9.816;2024-02-16T01:45:48;57.15;;;31.08;;
82230;SDS011;71832;45.138;9.816;2024-02-16T01:48:16;54.80;;;30.42;;
82230;SDS011;71832;45.138;9.816;2024-02-16T01:50:45;61.72;;;33.78;;
82230;SDS011;71832;45.138;9.816;2024-02-16T01:53:14;60.03;;;34.50;;
82230;SDS011;71832;45.138;9.816;2024-02-16T01:55:44;60.83;;;32.90;;
82230;SDS011;71832;45.138;9.816;2024-02-16T01:58:14;60.08;;;32.80;;
82230;SDS011;71832;45.138;9.816;2024-02-16T02:00:42;63.67;;;34.50;;
82230;SDS011;71832;45.138;9.816;2024-02-16T02:03:11;63.03;;;33.75;;
82230;SDS011;71832;45.138;9.816;2024-02-16T02:05:45;66.88;;;34.30;;
82230;SDS011;71832;45.138;9.816;2024-02-16T02:08:14;65.95;;;34.83;;
82230;SDS011;71832;45.138;9.816;2024-02-16T02:10:43;59.25;;;33.63;;
82230;SDS011;71832;45.138;9.816;2024-02-16T02:13:11;62.20;;;34.15;;
82230;SDS011;71832;45.138;9.816;2024-02-16T02:15:41;64.13;;;34.28;;
82230;SDS011;71832;45.138;9.816;2024-02-16T02:18:09;62.85;;;35.00;;
82230;SDS011;71832;45.138;9.816;2024-02-16T02:20:37;62.60;;;32.88;;
82230;SDS011;71832;45.138;9.816;2024-02-16T02:23:05;69.05;;;35.08;;
82230;SDS011;71832;45.138;9.816;2024-02-16T02:25:34;60.67;;;36.53;;
82230;SDS011;71832;45.138;9.816;2024-02-16T02:28:02;66.03;;;34.65;;
82230;SDS011;71832;45.138;9.816;2024-02-16T02:30:31;59.38;;;34.05;;
82230;SDS011;71832;45.138;9.816;2024-02-16T02:32:59;65.60;;;36.03;;
82230;SDS011;71832;45.138;9.816;2024-02-16T02:35:28;62.67;;;33.22;;
82230;SDS011;71832;45.138;9.816;2024-02-16T02:37:56;62.03;;;35.30;;
82230;SDS011;71832;45.138;9.816;2024-02-16T02:40:24;72.10;;;38.13;;
82230;SDS011;71832;45.138;9.816;2024-02-16T02:42:51;70.95;;;36.97;;
82230;SDS011;71832;45.138;9.816;2024-02-16T02:45:20;64.45;;;37.15;;
82230;SDS011;71832;45.138;9.816;2024-02-16T02:47:49;69.25;;;38.35;;
82230;SDS011;71832;45.138;9.816;2024-02-16T02:50:18;70.93;;;38.33;;
82230;SDS011;71832;45.138;9.816;2024-02-16T02:52:46;74.05;;;38.85;;
82230;SDS011;71832;45.138;9.816;2024-02-16T02:55:14;73.47;;;38.92;;
82230;SDS011;71832;45.138;9.816;2024-02-16T02:57:42;80.25;;;40.78;;
82230;SDS011;71832;45.138;9.816;2024-02-16T03:00:10;70.05;;;36.92;;
82230;SDS011;71832;45.138;9.816;2024-02-16T03:02:38;65.32;;;36.72;;
82230;SDS011;71832;45.138;9.816;2024-02-16T03:05:07;72.43;;;36.63;;
82230;SDS011;71832;45.138;9.816;2024-02-16T03:07:34;72.53;;;37.42;;
82230;SDS011;71832;45.138;9.816;2024-02-16T03:10:02;68.32;;;35.47;;
82230;SDS011;71832;45.138;9.816;2024-02-16T03:12:31;71.78;;;37.00;;
82230;SDS011;71832;45.138;9.816;2024-02-16T03:15:00;67.20;;;36.33;;
82230;SDS011;71832;45.138;9.816;2024-02-16T03:17:29;64.15;;;34.67;;
82230;SDS011;71832;45.138;9.816;2024-02-16T03:19:58;60.33;;;33.13;;
82230;SDS011;71832;45.138;9.816;2024-02-16T03:22:27;54.42;;;29.92;;
82230;SDS011;71832;45.138;9.816;2024-02-16T03:24:54;47.53;;;27.55;;
82230;SDS011;71832;45.138;9.816;2024-02-16T03:27:22;53.20;;;28.50;;
82230;SDS011;71832;45.138;9.816;2024-02-16T03:29:50;55.25;;;30.70;;
82230;SDS011;71832;45.138;9.816;2024-02-16T03:32:19;59.90;;;31.30;;
82230;SDS011;71832;45.138;9.816;2024-02-16T03:34:48;62.22;;;33.08;;
82230;SDS011;71832;45.138;9.816;2024-02-16T03:37:17;62.45;;;32.75;;
82230;SDS011;71832;45.138;9.816;2024-02-16T03:39:46;59.75;;;33.88;;
82230;SDS011;71832;45.138;9.816;2024-02-16T03:42:13;66.53;;;33.92;;
82230;SDS011;71832;45.138;9.816;2024-02-16T03:44:44;67.88;;;36.28;;
82230;SDS011;71832;45.138;9.816;2024-02-16T03:47:12;65.20;;;36.42;;
82230;SDS011;71832;45.138;9.816;2024-02-16T03:49:42;69.45;;;36.88;;
82230;SDS011;71832;45.138;9.816;2024-02-16T03:52:10;67.20;;;35.25;;
82230;SDS011;71832;45.138;9.816;2024-02-16T03:54:40;67.05;;;36.38;;
82230;SDS011;71832;45.138;9.816;2024-02-16T03:57:09;75.65;;;38.88;;
82230;SDS011;71832;45.138;9.816;2024-02-16T03:59:38;79.03;;;39.40;;
82230;SDS011;71832;45.138;9.816;2024-02-16T04:02:07;72.00;;;39.33;;
82230;SDS011;71832;45.138;9.816;2024-02-16T04:04:35;68.10;;;35.85;;
82230;SDS011;71832;45.138;9.816;2024-02-16T04:07:03;69.75;;;35.80;;
82230;SDS011;71832;45.138;9.816;2024-02-16T04:09:32;64.93;;;35.63;;
82230;SDS011;71832;45.138;9.816;2024-02-16T04:12:01;73.35;;;37.10;;
82230;SDS011;71832;45.138;9.816;2024-02-16T04:14:29;56.92;;;33.03;;
82230;SDS011;71832;45.138;9.816;2024-02-16T04:16:59;59.35;;;33.10;;
82230;SDS011;71832;45.138;9.816;2024-02-16T04:19:27;53.42;;;31.80;;
82230;SDS011;71832;45.138;9.816;2024-02-16T04:21:56;53.22;;;29.05;;
82230;SDS011;71832;45.138;9.816;2024-02-16T04:24:24;48.08;;;28.38;;
82230;SDS011;71832;45.138;9.816;2024-02-16T04:26:53;40.78;;;25.48;;
82230;SDS011;71832;45.138;9.816;2024-02-16T04:29:22;41.22;;;24.33;;
82230;SDS011;71832;45.138;9.816;2024-02-16T04:31:50;38.60;;;23.33;;
82230;SDS011;71832;45.138;9.816;2024-02-16T04:34:18;40.53;;;25.05;;
82230;SDS011;71832;45.138;9.816;2024-02-16T04:36:47;32.88;;;22.67;;
82230;SDS011;71832;45.138;9.816;2024-02-16T04:39:15;36.97;;;23.05;;
82230;SDS011;71832;45.138;9.816;2024-02-16T04:41:45;34.65;;;21.20;;
82230;SDS011;71832;45.138;9.816;2024-02-16T04:44:12;34.33;;;22.23;;
82230;SDS011;71832;45.138;9.816;2024-02-16T04:46:41;37.75;;;22.67;;
82230;SDS011;71832;45.138;9.816;2024-02-16T04:49:09;37.95;;;24.40;;
82230;SDS011;71832;45.138;9.816;2024-02-16T04:51:38;39.35;;;24.48;;
82230;SDS011;71832;45.138;9.816;2024-02-16T04:54:07;36.50;;;24.80;;
82230;SDS011;71832;45.138;9.816;2024-02-16T04:56:35;37.10;;;24.40;;
82230;SDS011;71832;45.138;9.816;2024-02-16T04:59:02;35.10;;;23.40;;
82230;SDS011;71832;45.138;9.816;2024-02-16T05:01:30;35.30;;;24.25;;
82230;SDS011;71832;45.138;9.816;2024-02-16T05:03:59;34.13;;;23.88;;
82230;SDS011;71832;45.138;9.816;2024-02-16T05:06:27;33.95;;;23.02;;
82230;SDS011;71832;45.138;9.816;2024-02-16T05:08:56;33.83;;;23.65;;
82230;SDS011;71832;45.138;9.816;2024-02-16T05:11:24;37.03;;;24.05;;
82230;SDS011;71832;45.138;9.816;2024-02-16T05:13:55;35.00;;;23.65;;
82230;SDS011;71832;45.138;9.816;2024-02-16T05:16:24;34.90;;;24.40;;
82230;SDS011;71832;45.138;9.816;2024-02-16T05:18:52;37.28;;;23.73;;
82230;SDS011;71832;45.138;9.816;2024-02-16T05:21:23;33.85;;;23.77;;
82230;SDS011;71832;45.138;9.816;2024-02-16T05:23:51;31.65;;;23.23;;
82230;SDS011;71832;45.138;9.816;2024-02-16T05:26:21;30.95;;;22.15;;
82230;SDS011;71832;45.138;9.816;2024-02-16T05:28:49;31.58;;;21.73;;
82230;SDS011;71832;45.138;9.816;2024-02-16T05:31:18;27.95;;;21.00;;
82230;SDS011;71832;45.138;9.816;2024-02-16T05:33:47;29.80;;;21.13;;
82230;SDS011;71832;45.138;9.816;2024-02-16T05:36:17;30.65;;;21.38;;
82230;SDS011;71832;45.138;9.816;2024-02-16T05:38:46;30.27;;;21.98;;
82230;SDS011;71832;45.138;9.816;2024-02-16T05:41:15;32.03;;;23.05;;
82230;SDS011;71832;45.138;9.816;2024-02-16T05:43:44;31.08;;;23.13;;
82230;SDS011;71832;45.138;9.816;2024-02-16T05:46:14;33.63;;;22.65;;
82230;SDS011;71832;45.138;9.816;2024-02-16T05:48:43;32.65;;;21.92;;
82230;SDS011;71832;45.138;9.816;2024-02-16T05:51:12;31.35;;;22.90;;
82230;SDS011;71832;45.138;9.816;2024-02-16T05:53:41;32.03;;;22.40;;
82230;SDS011;71832;45.138;9.816;2024-02-16T05:56:11;36.35;;;24.20;;
82230;SDS011;71832;45.138;9.816;2024-02-16T05:58:38;31.13;;;22.40;;
82230;SDS011;71832;45.138;9.816;2024-02-16T06:01:06;32.60;;;21.98;;
82230;SDS011;71832;45.138;9.816;2024-02-16T06:03:40;31.00;;;21.83;;
82230;SDS011;71832;45.138;9.816;2024-02-16T06:06:09;31.25;;;20.88;;
82230;SDS011;71832;45.138;9.816;2024-02-16T06:08:36;35.75;;;21.42;;
82230;SDS011;71832;45.138;9.816;2024-02-16T06:11:07;36.42;;;23.33;;
82230;SDS011;71832;45.138;9.816;2024-02-16T06:13:36;36.38;;;23.83;;
82230;SDS011;71832;45.138;9.816;2024-02-16T06:16:05;46.55;;;27.90;;
82230;SDS011;71832;45.138;9.816;2024-02-16T06:18:35;48.92;;;29.55;;
82230;SDS011;71832;45.138;9.816;2024-02-16T06:21:03;49.70;;;28.45;;
82230;SDS011;71832;45.138;9.816;2024-02-16T06:23:31;48.28;;;27.75;;
82230;SDS011;71832;45.138;9.816;2024-02-16T06:25:59;48.55;;;27.80;;
82230;SDS011;71832;45.138;9.816;2024-02-16T06:28:28;56.15;;;30.80;;
82230;SDS011;71832;45.138;9.816;2024-02-16T06:30:57;52.33;;;31.27;;
82230;SDS011;71832;45.138;9.816;2024-02-16T06:33:25;57.83;;;32.25;;
82230;SDS011;71832;45.138;9.816;2024-02-16T06:35:54;54.33;;;30.38;;
82230;SDS011;71832;45.138;9.816;2024-02-16T06:38:22;50.45;;;29.98;;
82230;SDS011;71832;45.138;9.816;2024-02-16T06:40:51;52.10;;;28.15;;
82230;SDS011;71832;45.138;9.816;2024-02-16T06:43:20;49.45;;;28.75;;
82230;SDS011;71832;45.138;9.816;2024-02-16T06:45:48;47.00;;;29.05;;
82230;SDS011;71832;45.138;9.816;2024-02-16T06:48:17;46.58;;;28.58;;
82230;SDS011;71832;45.138;9.816;2024-02-16T06:50:45;48.92;;;28.83;;
82230;SDS011;71832;45.138;9.816;2024-02-16T06:53:14;47.38;;;28.35;;
82230;SDS011;71832;45.138;9.816;2024-02-16T06:55:43;46.58;;;27.63;;
82230;SDS011;71832;45.138;9.816;2024-02-16T06:58:12;45.92;;;27.88;;
82230;SDS011;71832;45.138;9.816;2024-02-16T07:00:40;44.80;;;27.88;;
82230;SDS011;71832;45.138;9.816;2024-02-16T07:03:09;41.22;;;26.02;;
82230;SDS011;71832;45.138;9.816;2024-02-16T07:05:38;39.85;;;25.98;;
82230;SDS011;71832;45.138;9.816;2024-02-16T07:08:06;37.72;;;25.05;;
82230;SDS011;71832;45.138;9.816;2024-02-16T07:10:35;40.97;;;26.27;;
82230;SDS011;71832;45.138;9.816;2024-02-16T07:13:05;42.20;;;26.52;;
82230;SDS011;71832;45.138;9.816;2024-02-16T07:15:33;40.35;;;24.92;;
82230;SDS011;71832;45.138;9.816;2024-02-16T07:18:00;39.75;;;25.98;;
82230;SDS011;71832;45.138;9.816;2024-02-16T07:20:29;39.33;;;25.77;;
82230;SDS011;71832;45.138;9.816;2024-02-16T07:22:58;42.67;;;27.42;;
82230;SDS011;71832;45.138;9.816;2024-02-16T07:25:27;42.28;;;26.63;;
82230;SDS011;71832;45.138;9.816;2024-02-16T07:27:56;41.78;;;26.80;;
82230;SDS011;71832;45.138;9.816;2024-02-16T07:30:24;40.25;;;25.67;;
82230;SDS011;71832;45.138;9.816;2024-02-16T07:32:53;38.67;;;24.50;;
82230;SDS011;71832;45.138;9.816;2024-02-16T07:35:22;36.30;;;24.77;;
82230;SDS011;71832;45.138;9.816;2024-02-16T07:37:51;37.33;;;24.10;;
82230;SDS011;71832;45.138;9.816;2024-02-16T07:40:20;36.92;;;24.67;;
82230;SDS011;71832;45.138;9.816;2024-02-16T07:42:49;41.22;;;26.33;;
82230;SDS011;71832;45.138;9.816;2024-02-16T07:45:18;38.15;;;24.40;;
82230;SDS011;71832;45.138;9.816;2024-02-16T07:47:47;37.22;;;25.20;;
82230;SDS011;71832;45.138;9.816;2024-02-16T07:50:19;34.65;;;23.35;;
82230;SDS011;71832;45.138;9.816;2024-02-16T07:52:49;35.22;;;22.90;;
82230;SDS011;71832;45.138;9.816;2024-02-16T07:55:18;36.05;;;22.75;;
82230;SDS011;71832;45.138;9.816;2024-02-16T07:57:48;36.72;;;24.92;;
82230;SDS011;71832;45.138;9.816;2024-02-16T08:00:17;41.47;;;26.23;;
82230;SDS011;71832;45.138;9.816;2024-02-16T08:02:46;40.50;;;26.17;;
82230;SDS011;71832;45.138;9.816;2024-02-16T08:05:14;41.88;;;28.27;;
82230;SDS011;71832;45.138;9.816;2024-02-16T08:07:45;40.88;;;26.35;;
82230;SDS011;71832;45.138;9.816;2024-02-16T08:10:14;42.28;;;27.45;;
82230;SDS011;71832;45.138;9.816;2024-02-16T08:15:14;47.05;;;28.15;;
82230;SDS011;71832;45.138;9.816;2024-02-16T08:17:49;52.65;;;30.88;;
82230;SDS011;71832;45.138;9.816;2024-02-16T08:20:17;49.58;;;29.42;;
82230;SDS011;71832;45.138;9.816;2024-02-16T08:22:46;51.92;;;33.17;;
82230;SDS011;71832;45.138;9.816;2024-02-16T08:25:15;47.03;;;30.75;;
82230;SDS011;71832;45.138;9.816;2024-02-16T08:27:44;46.20;;;29.92;;
82230;SDS011;71832;45.138;9.816;2024-02-16T08:30:13;51.38;;;31.52;;
82230;SDS011;71832;45.138;9.816;2024-02-16T08:32:41;51.47;;;31.42;;
82230;SDS011;71832;45.138;9.816;2024-02-16T08:35:10;48.42;;;30.92;;
82230;SDS011;71832;45.138;9.816;2024-02-16T08:37:40;52.88;;;32.95;;
82230;SDS011;71832;45.138;9.816;2024-02-16T08:40:09;52.35;;;32.95;;
82230;SDS011;71832;45.138;9.816;2024-02-16T08:42:40;57.80;;;32.60;;
82230;SDS011;71832;45.138;9.816;2024-02-16T08:45:12;57.00;;;35.10;;
82230;SDS011;71832;45.138;9.816;2024-02-16T08:47:43;61.25;;;36.83;;
82230;SDS011;71832;45.138;9.816;2024-02-16T08:50:12;58.42;;;36.75;;
82230;SDS011;71832;45.138;9.816;2024-02-16T08:52:41;55.28;;;34.95;;
82230;SDS011;71832;45.138;9.816;2024-02-16T08:55:10;54.80;;;32.40;;
82230;SDS011;71832;45.138;9.816;2024-02-16T08:57:39;54.75;;;32.03;;
82230;SDS011;71832;45.138;9.816;2024-02-16T09:00:08;54.90;;;32.45;;
82230;SDS011;71832;45.138;9.816;2024-02-16T09:02:38;58.53;;;33.75;;
82230;SDS011;71832;45.138;9.816;2024-02-16T09:05:07;59.20;;;34.50;;
82230;SDS011;71832;45.138;9.816;2024-02-16T09:07:36;57.20;;;34.92;;
82230;SDS011;71832;45.138;9.816;2024-02-16T09:10:05;69.50;;;37.08;;
82230;SDS011;71832;45.138;9.816;2024-02-16T09:12:34;63.47;;;36.05;;
82230;SDS011;71832;45.138;9.816;2024-02-16T09:15:03;61.78;;;36.90;;
82230;SDS011;71832;45.138;9.816;2024-02-16T09:17:31;63.95;;;36.83;;
82230;SDS011;71832;45.138;9.816;2024-02-16T09:20:00;64.68;;;36.80;;
82230;SDS011;71832;45.138;9.816;2024-02-16T09:22:30;72.22;;;42.38;;
82230;SDS011;71832;45.138;9.816;2024-02-16T09:24:59;76.97;;;42.70;;
82230;SDS011;71832;45.138;9.816;2024-02-16T09:27:27;68.95;;;40.85;;
82230;SDS011;71832;45.138;9.816;2024-02-16T09:29:56;76.45;;;42.33;;
82230;SDS011;71832;45.138;9.816;2024-02-16T09:32:25;70.20;;;39.83;;
82230;SDS011;71832;45.138;9.816;2024-02-16T09:34:54;68.72;;;40.90;;
82230;SDS011;71832;45.138;9.816;2024-02-16T09:37:22;68.63;;;42.47;;
82230;SDS011;71832;45.138;9.816;2024-02-16T09:39:51;75.72;;;43.08;;
82230;SDS011;71832;45.138;9.816;2024-02-16T09:42:20;81.20;;;44.00;;
82230;SDS011;71832;45.138;9.816;2024-02-16T09:44:52;81.63;;;44.30;;
82230;SDS011;71832;45.138;9.816;2024-02-16T09:47:22;79.18;;;43.22;;
82230;SDS011;71832;45.138;9.816;2024-02-16T09:49:54;78.20;;;44.60;;
82230;SDS011;71832;45.138;9.816;2024-02-16T09:52:23;73.63;;;43.75;;
82230;SDS011;71832;45.138;9.816;2024-02-16T09:54:52;79.97;;;45.75;;
82230;SDS011;71832;45.138;9.816;2024-02-16T09:57:21;86.40;;;46.67;;
82230;SDS011;71832;45.138;9.816;2024-02-16T09:59:50;77.25;;;45.55;;
82230;SDS011;71832;45.138;9.816;2024-02-16T10:02:18;96.88;;;51.50;;
82230;SDS011;71832;45.138;9.816;2024-02-16T10:04:49;86.72;;;49.42;;
82230;SDS011;71832;45.138;9.816;2024-02-16T10:07:30;86.63;;;48.50;;
82230;SDS011;71832;45.138;9.816;2024-02-16T10:09:59;87.72;;;47.30;;
82230;SDS011;71832;45.138;9.816;2024-02-16T10:12:27;93.70;;;51.97;;
82230;SDS011;71832;45.138;9.816;2024-02-16T10:14:56;94.75;;;50.70;;
82230;SDS011;71832;45.138;9.816;2024-02-16T10:17:26;94.15;;;51.80;;
82230;SDS011;71832;45.138;9.816;2024-02-16T10:19:55;96.72;;;53.28;;
82230;SDS011;71832;45.138;9.816;2024-02-16T10:22:25;91.50;;;49.90;;
82230;SDS011;71832;45.138;9.816;2024-02-16T10:24:54;88.15;;;51.75;;
82230;SDS011;71832;45.138;9.816;2024-02-16T10:27:22;91.28;;;51.97;;
82230;SDS011;71832;45.138;9.816;2024-02-16T10:29:52;92.90;;;52.28;;
82230;SDS011;71832;45.138;9.816;2024-02-16T10:32:22;92.32;;;52.17;;
82230;SDS011;71832;45.138;9.816;2024-02-16T10:34:52;97.82;;;56.10;;
82230;SDS011;71832;45.138;9.816;2024-02-16T10:37:22;106.60;;;56.33;;
82230;SDS011;71832;45.138;9.816;2024-02-16T10:39:51;101.03;;;56.72;;
82230;SDS011;71832;45.138;9.816;2024-02-16T10:42:21;97.13;;;55.42;;
82230;SDS011;71832;45.138;9.816;2024-02-16T10:44:54;102.10;;;57.05;;
82230;SDS011;71832;45.138;9.816;2024-02-16T10:47:23;102.38;;;57.33;;
82230;SDS011;71832;45.138;9.816;2024-02-16T10:49:52;101.45;;;54.75;;
82230;SDS011;71832;45.138;9.816;2024-02-16T10:52:22;106.55;;;57.15;;
82230;SDS011;71832;45.138;9.816;2024-02-16T10:54:51;101.13;;;53.80;;
82230;SDS011;71832;45.138;9.816;2024-02-16T10:57:21;101.85;;;56.22;;
82230;SDS011;71832;45.138;9.816;2024-02-16T10:59:52;106.03;;;59.17;;
82230;SDS011;71832;45.138;9.816;2024-02-16T11:02:21;102.95;;;57.63;;
82230;SDS011;71832;45.138;9.816;2024-02-16T11:04:51;106.22;;;56.35;;
82230;SDS011;71832;45.138;9.816;2024-02-16T11:07:20;112.45;;;60.53;;
82230;SDS011;71832;45.138;9.816;2024-02-16T11:09:51;120.18;;;61.70;;
82230;SDS011;71832;45.138;9.816;2024-02-16T11:12:20;101.78;;;56.17;;
82230;SDS011;71832;45.138;9.816;2024-02-16T11:14:49;100.80;;;54.95;;
82230;SDS011;71832;45.138;9.816;2024-02-16T11:17:21;102.53;;;56.58;;
82230;SDS011;71832;45.138;9.816;2024-02-16T11:19:53;106.60;;;56.20;;
82230;SDS011;71832;45.138;9.816;2024-02-16T11:22:22;104.75;;;56.78;;
82230;SDS011;71832;45.138;9.816;2024-02-16T11:24:55;103.13;;;56.70;;
82230;SDS011;71832;45.138;9.816;2024-02-16T11:27:26;101.82;;;55.63;;
82230;SDS011;71832;45.138;9.816;2024-02-16T11:29:59;101.13;;;53.85;;
82230;SDS011;71832;45.138;9.816;2024-02-16T11:32:31;102.57;;;55.13;;
82230;SDS011;71832;45.138;9.816;2024-02-16T11:35:08;99.28;;;55.50;;
82230;SDS011;71832;45.138;9.816;2024-02-16T11:37:37;104.80;;;56.13;;
82230;SDS011;71832;45.138;9.816;2024-02-16T11:40:06;95.35;;;53.35;;
82230;SDS011;71832;45.138;9.816;2024-02-16T11:42:38;101.72;;;53.03;;
82230;SDS011;71832;45.138;9.816;2024-02-16T11:45:10;100.72;;;54.38;;
82230;SDS011;71832;45.138;9.816;2024-02-16T11:47:39;96.53;;;55.13;;
82230;SDS011;71832;45.138;9.816;2024-02-16T11:50:08;97.40;;;54.05;;
82230;SDS011;71832;45.138;9.816;2024-02-16T11:52:38;102.30;;;53.58;;
82230;SDS011;71832;45.138;9.816;2024-02-16T11:55:07;102.57;;;56.17;;
82230;SDS011;71832;45.138;9.816;2024-02-16T11:57:36;108.40;;;56.45;;
82230;SDS011;71832;45.138;9.816;2024-02-16T12:00:05;102.88;;;55.78;;
82230;SDS011;71832;45.138;9.816;2024-02-16T12:02:36;99.75;;;55.33;;
82230;SDS011;71832;45.138;9.816;2024-02-16T12:05:05;102.55;;;54.72;;
82230;SDS011;71832;45.138;9.816;2024-02-16T12:07:38;106.38;;;55.80;;
82230;SDS011;71832;45.138;9.816;2024-02-16T12:10:06;101.95;;;55.42;;
82230;SDS011;71832;45.138;9.816;2024-02-16T12:12:36;104.47;;;53.85;;
82230;SDS011;71832;45.138;9.816;2024-02-16T12:15:05;110.43;;;56.92;;
82230;SDS011;71832;45.138;9.816;2024-02-16T12:17:34;103.93;;;53.60;;
82230;SDS011;71832;45.138;9.816;2024-02-16T12:20:02;101.13;;;54.95;;
82230;SDS011;71832;45.138;9.816;2024-02-16T12:22:38;98.35;;;53.08;;
82230;SDS011;71832;45.138;9.816;2024-02-16T12:25:07;101.35;;;51.65;;
82230;SDS011;71832;45.138;9.816;2024-02-16T12:27:36;102.20;;;53.42;;
82230;SDS011;71832;45.138;9.816;2024-02-16T12:30:05;104.43;;;55.13;;
82230;SDS011;71832;45.138;9.816;2024-02-16T12:32:34;109.63;;;57.70;;
82230;SDS011;71832;45.138;9.816;2024-02-16T12:35:02;100.68;;;54.10;;
82230;SDS011;71832;45.138;9.816;2024-02-16T12:37:31;103.90;;;55.08;;
82230;SDS011;71832;45.138;9.816;2024-02-16T12:40:01;102.53;;;52.65;;
82230;SDS011;71832;45.138;9.816;2024-02-16T12:42:30;106.07;;;54.97;;
82230;SDS011;71832;45.138;9.816;2024-02-16T12:44:59;105.32;;;54.33;;
82230;SDS011;71832;45.138;9.816;2024-02-16T12:47:28;104.75;;;55.50;;
82230;SDS011;71832;45.138;9.816;2024-02-16T12:49:57;104.82;;;54.78;;
82230;SDS011;71832;45.138;9.816;2024-02-16T12:52:25;110.32;;;57.72;;
82230;SDS011;71832;45.138;9.816;2024-02-16T12:54:54;96.90;;;54.38;;
82230;SDS011;71832;45.138;9.816;2024-02-16T12:57:25;105.15;;;57.17;;
82230;SDS011;71832;45.138;9.816;2024-02-16T12:59:55;106.70;;;54.97;;
82230;SDS011;71832;45.138;9.816;2024-02-16T13:02:23;100.43;;;53.83;;
82230;SDS011;71832;45.138;9.816;2024-02-16T13:04:53;96.55;;;51.88;;
82230;SDS011;71832;45.138;9.816;2024-02-16T13:07:23;98.05;;;53.17;;
82230;SDS011;71832;45.138;9.816;2024-02-16T13:09:52;98.03;;;52.42;;
82230;SDS011;71832;45.138;9.816;2024-02-16T13:12:21;100.95;;;53.38;;
82230;SDS011;71832;45.138;9.816;2024-02-16T13:14:50;101.22;;;54.10;;
82230;SDS011;71832;45.138;9.816;2024-02-16T13:17:19;99.75;;;52.13;;
82230;SDS011;71832;45.138;9.816;2024-02-16T13:19:48;101.72;;;53.97;;
82230;SDS011;71832;45.138;9.816;2024-02-16T13:22:16;101.45;;;53.05;;
82230;SDS011;71832;45.138;9.816;2024-02-16T13:24:45;106.25;;;56.03;;
82230;SDS011;71832;45.138;9.816;2024-02-16T13:27:14;100.18;;;52.35;;
82230;SDS011;71832;45.138;9.816;2024-02-16T13:29:43;94.30;;;51.13;;
82230;SDS011;71832;45.138;9.816;2024-02-16T13:32:11;97.55;;;50.75;;
82230;SDS011;71832;45.138;9.816;2024-02-16T13:34:40;97.28;;;51.03;;
82230;SDS011;71832;45.138;9.816;2024-02-16T13:37:09;96.50;;;51.65;;
82230;SDS011;71832;45.138;9.816;2024-02-16T13:39:38;98.80;;;51.95;;
82230;SDS011;71832;45.138;9.816;2024-02-16T13:42:07;95.97;;;51.72;;
82230;SDS011;71832;45.138;9.816;2024-02-16T13:44:36;96.78;;;53.10;;
82230;SDS011;71832;45.138;9.816;2024-02-16T13:47:06;95.57;;;52.03;;
82230;SDS011;71832;45.138;9.816;2024-02-16T13:49:34;92.78;;;51.35;;
82230;SDS011;71832;45.138;9.816;2024-02-16T13:52:03;87.03;;;48.47;;
82230;SDS011;71832;45.138;9.816;2024-02-16T13:54:32;90.00;;;48.40;;
82230;SDS011;71832;45.138;9.816;2024-02-16T13:57:02;88.78;;;50.10;;
82230;SDS011;71832;45.138;9.816;2024-02-16T13:59:30;92.60;;;49.83;;
82230;SDS011;71832;45.138;9.816;2024-02-16T14:02:00;97.65;;;51.63;;
82230;SDS011;71832;45.138;9.816;2024-02-16T14:04:29;99.78;;;51.13;;
82230;SDS011;71832;45.138;9.816;2024-02-16T14:06:58;93.68;;;53.40;;
82230;SDS011;71832;45.138;9.816;2024-02-16T14:09:26;100.90;;;53.47;;
82230;SDS011;71832;45.138;9.816;2024-02-16T14:11:55;102.43;;;55.63;;
82230;SDS011;71832;45.138;9.816;2024-02-16T14:14:25;103.55;;;54.58;;
82230;SDS011;71832;45.138;9.816;2024-02-16T14:16:53;95.38;;;54.60;;
82230;SDS011;71832;45.138;9.816;2024-02-16T14:19:22;104.35;;;56.60;;
82230;SDS011;71832;45.138;9.816;2024-02-16T14:21:51;102.88;;;52.67;;
82230;SDS011;71832;45.138;9.816;2024-02-16T14:24:20;97.13;;;52.67;;
82230;SDS011;71832;45.138;9.816;2024-02-16T14:26:49;100.05;;;52.85;;
82230;SDS011;71832;45.138;9.816;2024-02-16T14:29:18;101.07;;;52.50;;
82230;SDS011;71832;45.138;9.816;2024-02-16T14:31:47;97.63;;;54.10;;